sensor_id;sensor_type;location;lat;lon;timestamp;temperature;humidity
40123;DHT22;25832;45.490;4.912;2023-02-01T00:00:15;4.00;99.90
40123;DHT22;25832;45.490;4.912;2023-02-01T00:02:41;4.00;99.90
40123;DHT22;25832;45.490;4.912;2023-02-01T00:05:10;4.00;99.90
40123;DHT22;25832;45.490;4.912;2023-02-01T00:07:36;4.00;99.90
40123;DHT22;25832;45.490;4.912;2023-02-01T00:10:03;4.10;99.90
40123;DHT22;25832;45.490;4.912;2023-02-01T00:12:30;4.10;99.90
40123;DHT22;25832;45.490;4.912;2023-02-01T00:14:56;4.20;99.90
40123;DHT22;25832;45.490;4.912;2023-02-01T00:17:22;4.10;99.90
40123;DHT22;25832;45.490;4.912;2023-02-01T00:19:48;4.10;99.90
40123;DHT22;25832;45.490;4.912;2023-02-01T00:22:13;4.10;99.90
40123;DHT22;25832;45.490;4.912;2023-02-01T00:24:39;4.10;99.90
40123;DHT22;25832;45.490;4.912;2023-02-01T00:27:05;4.10;99.90
40123;DHT22;25832;45.490;4.912;2023-02-01T00:29:31;4.10;99.90
40123;DHT22;25832;45.490;4.912;2023-02-01T00:31:56;4.10;99.90
40123;DHT22;25832;45.490;4.912;2023-02-01T00:34:22;4.10;99.90
40123;DHT22;25832;45.490;4.912;2023-02-01T00:36:48;4.10;99.90
40123;DHT22;25832;45.490;4.912;2023-02-01T00:39:14;4.10;99.90
40123;DHT22;25832;45.490;4.912;2023-02-01T00:41:40;4.20;99.90
40123;DHT22;25832;45.490;4.912;2023-02-01T00:44:06;4.20;99.90
40123;DHT22;25832;45.490;4.912;2023-02-01T00:46:32;4.20;99.90
40123;DHT22;25832;45.490;4.912;2023-02-01T00:48:58;4.20;99.90
40123;DHT22;25832;45.490;4.912;2023-02-01T00:51:26;4.30;99.90
40123;DHT22;25832;45.490;4.912;2023-02-01T00:53:52;4.20;99.90
40123;DHT22;25832;45.490;4.912;2023-02-01T00:56:18;4.20;99.90
40123;DHT22;25832;45.490;4.912;2023-02-01T00:58:44;4.20;99.90
40123;DHT22;25832;45.490;4.912;2023-02-01T01:01:15;4.20;99.90
40123;DHT22;25832;45.490;4.912;2023-02-01T01:03:44;4.20;99.90
40123;DHT22;25832;45.490;4.912;2023-02-01T01:06:12;4.20;99.90
40123;DHT22;25832;45.490;4.912;2023-02-01T01:08:38;4.20;99.90
40123;DHT22;25832;45.490;4.912;2023-02-01T01:11:10;4.30;99.90
40123;DHT22;25832;45.490;4.912;2023-02-01T01:13:36;4.30;99.90
40123;DHT22;25832;45.490;4.912;2023-02-01T01:16:03;4.30;99.90
40123;DHT22;25832;45.490;4.912;2023-02-01T01:18:30;4.30;99.90
40123;DHT22;25832;45.490;4.912;2023-02-01T01:20:57;4.40;99.90
40123;DHT22;25832;45.490;4.912;2023-02-01T01:23:23;4.50;99.90
40123;DHT22;25832;45.490;4.912;2023-02-01T01:25:49;4.40;99.90
40123;DHT22;25832;45.490;4.912;2023-02-01T01:28:14;4.50;99.90
40123;DHT22;25832;45.490;4.912;2023-02-01T01:30:40;4.50;99.90
40123;DHT22;25832;45.490;4.912;2023-02-01T01:33:06;4.50;99.90
40123;DHT22;25832;45.490;4.912;2023-02-01T01:35:33;4.50;99.90
40123;DHT22;25832;45.490;4.912;2023-02-01T01:37:59;4.40;99.90
40123;DHT22;25832;45.490;4.912;2023-02-01T01:40:26;4.40;99.90
40123;DHT22;25832;45.490;4.912;2023-02-01T01:42:51;4.40;99.90
40123;DHT22;25832;45.490;4.912;2023-02-01T01:45:26;4.40;99.90
40123;DHT22;25832;45.490;4.912;2023-02-01T01:48:04;4.40;99.90
40123;DHT22;25832;45.490;4.912;2023-02-01T01:50:35;4.30;99.90
40123;DHT22;25832;45.490;4.912;2023-02-01T01:53:04;4.30;99.90
40123;DHT22;25832;45.490;4.912;2023-02-01T01:55:33;4.20;99.90
40123;DHT22;25832;45.490;4.912;2023-02-01T01:58:05;4.20;99.90
40123;DHT22;25832;45.490;4.912;2023-02-01T02:00:32;4.10;99.90
40123;DHT22;25832;45.490;4.912;2023-02-01T02:03:30;4.10;99.90
40123;DHT22;25832;45.490;4.912;2023-02-01T02:05:55;4.10;99.90
40123;DHT22;25832;45.490;4.912;2023-02-01T02:08:24;4.10;99.90
40123;DHT22;25832;45.490;4.912;2023-02-01T02:10:51;4.00;99.90
40123;DHT22;25832;45.490;4.912;2023-02-01T02:13:35;4.00;99.90
40123;DHT22;25832;45.490;4.912;2023-02-01T02:25:02;3.80;99.90
40123;DHT22;25832;45.490;4.912;2023-02-01T02:38:47;3.60;99.90
40123;DHT22;25832;45.490;4.912;2023-02-01T02:41:18;3.60;99.90
40123;DHT22;25832;45.490;4.912;2023-02-01T02:47:29;3.60;99.90
40123;DHT22;25832;45.490;4.912;2023-02-01T02:52:59;3.50;99.90
40123;DHT22;25832;45.490;4.912;2023-02-01T02:55:45;3.40;99.90
40123;DHT22;25832;45.490;4.912;2023-02-01T02:58:12;3.40;99.90
40123;DHT22;25832;45.490;4.912;2023-02-01T03:00:57;3.40;99.90
40123;DHT22;25832;45.490;4.912;2023-02-01T03:03:43;3.30;99.90
40123;DHT22;25832;45.490;4.912;2023-02-01T03:06:34;3.20;99.90
40123;DHT22;25832;45.490;4.912;2023-02-01T03:09:02;3.10;99.90
40123;DHT22;25832;45.490;4.912;2023-02-01T03:11:31;3.00;99.90
40123;DHT22;25832;45.490;4.912;2023-02-01T03:14:17;2.90;99.90
40123;DHT22;25832;45.490;4.912;2023-02-01T03:16:49;2.80;99.90
40123;DHT22;25832;45.490;4.912;2023-02-01T03:19:30;2.70;99.90
40123;DHT22;25832;45.490;4.912;2023-02-01T03:22:11;2.60;99.90
40123;DHT22;25832;45.490;4.912;2023-02-01T03:24:39;2.50;99.90
40123;DHT22;25832;45.490;4.912;2023-02-01T03:29:38;2.40;99.90
40123;DHT22;25832;45.490;4.912;2023-02-01T03:32:06;2.40;99.90
40123;DHT22;25832;45.490;4.912;2023-02-01T03:34:32;2.40;99.90
40123;DHT22;25832;45.490;4.912;2023-02-01T03:37:02;2.40;99.90
40123;DHT22;25832;45.490;4.912;2023-02-01T03:39:57;2.40;99.90
40123;DHT22;25832;45.490;4.912;2023-02-01T03:42:33;2.40;99.90
40123;DHT22;25832;45.490;4.912;2023-02-01T03:47:49;2.40;99.90
40123;DHT22;25832;45.490;4.912;2023-02-01T03:50:20;2.50;99.90
40123;DHT22;25832;45.490;4.912;2023-02-01T03:53:07;2.50;99.90
40123;DHT22;25832;45.490;4.912;2023-02-01T03:55:35;2.50;99.90
40123;DHT22;25832;45.490;4.912;2023-02-01T03:58:11;2.50;99.90
40123;DHT22;25832;45.490;4.912;2023-02-01T04:00:38;2.50;99.90
40123;DHT22;25832;45.490;4.912;2023-02-01T04:03:06;2.40;99.90
40123;DHT22;25832;45.490;4.912;2023-02-01T04:05:33;2.30;99.90
40123;DHT22;25832;45.490;4.912;2023-02-01T04:07:59;2.20;99.90
40123;DHT22;25832;45.490;4.912;2023-02-01T04:10:25;2.10;99.90
40123;DHT22;25832;45.490;4.912;2023-02-01T04:12:50;1.90;99.90
40123;DHT22;25832;45.490;4.912;2023-02-01T04:15:16;1.70;99.90
40123;DHT22;25832;45.490;4.912;2023-02-01T04:17:42;1.50;99.90
40123;DHT22;25832;45.490;4.912;2023-02-01T04:20:08;1.40;99.90
40123;DHT22;25832;45.490;4.912;2023-02-01T04:22:34;1.30;99.90
40123;DHT22;25832;45.490;4.912;2023-02-01T04:25:00;1.20;99.90
40123;DHT22;25832;45.490;4.912;2023-02-01T04:27:25;1.10;99.90
40123;DHT22;25832;45.490;4.912;2023-02-01T04:29:51;1.10;99.90
40123;DHT22;25832;45.490;4.912;2023-02-01T04:32:18;1.10;99.90
40123;DHT22;25832;45.490;4.912;2023-02-01T04:34:45;1.10;99.90
40123;DHT22;25832;45.490;4.912;2023-02-01T04:37:11;1.00;99.90
40123;DHT22;25832;45.490;4.912;2023-02-01T04:39:36;1.00;99.90
40123;DHT22;25832;45.490;4.912;2023-02-01T04:42:02;1.10;99.90
40123;DHT22;25832;45.490;4.912;2023-02-01T04:44:28;1.10;99.90
40123;DHT22;25832;45.490;4.912;2023-02-01T04:46:54;1.20;99.90
40123;DHT22;25832;45.490;4.912;2023-02-01T04:49:19;1.20;99.90
40123;DHT22;25832;45.490;4.912;2023-02-01T04:51:47;1.30;99.90
40123;DHT22;25832;45.490;4.912;2023-02-01T04:54:13;1.30;99.90
40123;DHT22;25832;45.490;4.912;2023-02-01T04:56:39;1.40;99.90
40123;DHT22;25832;45.490;4.912;2023-02-01T04:59:05;1.50;99.90
40123;DHT22;25832;45.490;4.912;2023-02-01T05:01:31;1.50;99.90
40123;DHT22;25832;45.490;4.912;2023-02-01T05:03:57;1.50;99.90
40123;DHT22;25832;45.490;4.912;2023-02-01T05:06:23;1.60;99.90
40123;DHT22;25832;45.490;4.912;2023-02-01T05:08:49;1.70;99.90
40123;DHT22;25832;45.490;4.912;2023-02-01T05:11:15;1.80;99.90
40123;DHT22;25832;45.490;4.912;2023-02-01T05:13:59;1.80;99.90
40123;DHT22;25832;45.490;4.912;2023-02-01T05:16:26;1.90;99.90
40123;DHT22;25832;45.490;4.912;2023-02-01T05:18:52;1.90;99.90
40123;DHT22;25832;45.490;4.912;2023-02-01T05:21:18;2.00;99.90
40123;DHT22;25832;45.490;4.912;2023-02-01T05:23:44;2.00;99.90
40123;DHT22;25832;45.490;4.912;2023-02-01T05:26:28;2.10;99.90
40123;DHT22;25832;45.490;4.912;2023-02-01T05:28:54;2.10;99.90
40123;DHT22;25832;45.490;4.912;2023-02-01T05:31:20;2.20;99.90
40123;DHT22;25832;45.490;4.912;2023-02-01T05:33:46;2.20;99.90
40123;DHT22;25832;45.490;4.912;2023-02-01T05:36:12;2.20;99.90
40123;DHT22;25832;45.490;4.912;2023-02-01T05:38:38;2.30;99.90
40123;DHT22;25832;45.490;4.912;2023-02-01T05:41:04;2.30;99.90
40123;DHT22;25832;45.490;4.912;2023-02-01T05:43:29;2.40;99.90
40123;DHT22;25832;45.490;4.912;2023-02-01T05:45:55;2.40;99.90
40123;DHT22;25832;45.490;4.912;2023-02-01T05:48:21;2.40;99.90
40123;DHT22;25832;45.490;4.912;2023-02-01T05:50:46;2.40;99.90
40123;DHT22;25832;45.490;4.912;2023-02-01T05:53:12;2.40;99.90
40123;DHT22;25832;45.490;4.912;2023-02-01T05:55:38;2.50;99.90
40123;DHT22;25832;45.490;4.912;2023-02-01T05:58:04;2.50;99.90
40123;DHT22;25832;45.490;4.912;2023-02-01T06:00:30;2.50;99.90
40123;DHT22;25832;45.490;4.912;2023-02-01T06:02:56;2.50;99.90
40123;DHT22;25832;45.490;4.912;2023-02-01T06:05:22;2.60;99.90
40123;DHT22;25832;45.490;4.912;2023-02-01T06:07:48;2.60;99.90
40123;DHT22;25832;45.490;4.912;2023-02-01T06:10:16;2.60;99.90
40123;DHT22;25832;45.490;4.912;2023-02-01T06:12:42;2.60;99.90
40123;DHT22;25832;45.490;4.912;2023-02-01T06:15:11;2.70;99.90
40123;DHT22;25832;45.490;4.912;2023-02-01T06:17:37;2.70;99.90
40123;DHT22;25832;45.490;4.912;2023-02-01T06:20:03;2.70;99.90
40123;DHT22;25832;45.490;4.912;2023-02-01T06:22:32;2.70;99.90
40123;DHT22;25832;45.490;4.912;2023-02-01T06:24:58;2.70;99.90
40123;DHT22;25832;45.490;4.912;2023-02-01T06:27:25;2.70;99.90
40123;DHT22;25832;45.490;4.912;2023-02-01T06:29:50;2.70;99.90
40123;DHT22;25832;45.490;4.912;2023-02-01T06:32:16;2.70;99.90
40123;DHT22;25832;45.490;4.912;2023-02-01T06:34:43;2.80;99.90
40123;DHT22;25832;45.490;4.912;2023-02-01T06:37:08;2.80;99.90
40123;DHT22;25832;45.490;4.912;2023-02-01T06:39:36;2.80;99.90
40123;DHT22;25832;45.490;4.912;2023-02-01T06:42:02;2.90;99.90
40123;DHT22;25832;45.490;4.912;2023-02-01T06:44:28;2.90;99.90
40123;DHT22;25832;45.490;4.912;2023-02-01T06:46:54;2.90;99.90
40123;DHT22;25832;45.490;4.912;2023-02-01T06:49:20;2.90;99.90
40123;DHT22;25832;45.490;4.912;2023-02-01T06:51:46;2.90;99.90
40123;DHT22;25832;45.490;4.912;2023-02-01T06:54:11;2.90;99.90
40123;DHT22;25832;45.490;4.912;2023-02-01T06:56:37;3.00;99.90
40123;DHT22;25832;45.490;4.912;2023-02-01T06:59:04;3.00;99.90
40123;DHT22;25832;45.490;4.912;2023-02-01T07:01:30;3.00;99.90
40123;DHT22;25832;45.490;4.912;2023-02-01T07:03:56;3.00;99.90
40123;DHT22;25832;45.490;4.912;2023-02-01T07:06:21;3.00;99.90
40123;DHT22;25832;45.490;4.912;2023-02-01T07:08:47;3.10;99.90
40123;DHT22;25832;45.490;4.912;2023-02-01T07:11:14;3.10;99.90
40123;DHT22;25832;45.490;4.912;2023-02-01T07:13:40;3.10;99.90
40123;DHT22;25832;45.490;4.912;2023-02-01T07:16:11;3.10;99.90
40123;DHT22;25832;45.490;4.912;2023-02-01T07:18:37;3.10;99.90
40123;DHT22;25832;45.490;4.912;2023-02-01T07:21:03;3.10;99.90
40123;DHT22;25832;45.490;4.912;2023-02-01T07:23:29;3.20;99.90
40123;DHT22;25832;45.490;4.912;2023-02-01T07:25:59;3.20;99.90
40123;DHT22;25832;45.490;4.912;2023-02-01T07:28:27;3.20;99.90
40123;DHT22;25832;45.490;4.912;2023-02-01T07:30:53;3.20;99.90
40123;DHT22;25832;45.490;4.912;2023-02-01T07:33:23;3.30;99.90
40123;DHT22;25832;45.490;4.912;2023-02-01T07:35:50;3.30;99.90
40123;DHT22;25832;45.490;4.912;2023-02-01T07:38:16;3.30;99.90
40123;DHT22;25832;45.490;4.912;2023-02-01T07:40:42;3.40;99.90
40123;DHT22;25832;45.490;4.912;2023-02-01T07:43:08;3.40;99.90
40123;DHT22;25832;45.490;4.912;2023-02-01T07:45:35;3.40;99.90
40123;DHT22;25832;45.490;4.912;2023-02-01T07:48:01;3.40;99.90
40123;DHT22;25832;45.490;4.912;2023-02-01T07:50:27;3.40;99.90
40123;DHT22;25832;45.490;4.912;2023-02-01T07:52:53;3.50;99.90
40123;DHT22;25832;45.490;4.912;2023-02-01T07:55:20;3.40;99.90
40123;DHT22;25832;45.490;4.912;2023-02-01T07:57:46;3.50;99.90
40123;DHT22;25832;45.490;4.912;2023-02-01T08:00:12;3.50;99.90
40123;DHT22;25832;45.490;4.912;2023-02-01T08:03:00;3.50;99.90
40123;DHT22;25832;45.490;4.912;2023-02-01T08:05:26;3.50;99.90
40123;DHT22;25832;45.490;4.912;2023-02-01T08:07:52;3.50;99.90
40123;DHT22;25832;45.490;4.912;2023-02-01T08:10:18;3.60;99.90
40123;DHT22;25832;45.490;4.912;2023-02-01T08:12:45;3.70;99.90
40123;DHT22;25832;45.490;4.912;2023-02-01T08:15:17;3.80;99.90
40123;DHT22;25832;45.490;4.912;2023-02-01T08:17:50;3.90;99.90
40123;DHT22;25832;45.490;4.912;2023-02-01T08:20:17;4.00;99.90
40123;DHT22;25832;45.490;4.912;2023-02-01T08:22:43;4.00;99.90
40123;DHT22;25832;45.490;4.912;2023-02-01T08:25:09;4.10;99.90
40123;DHT22;25832;45.490;4.912;2023-02-01T08:27:35;4.20;99.90
40123;DHT22;25832;45.490;4.912;2023-02-01T08:30:00;4.30;99.90
40123;DHT22;25832;45.490;4.912;2023-02-01T08:32:26;4.30;99.90
40123;DHT22;25832;45.490;4.912;2023-02-01T08:34:52;4.40;99.90
40123;DHT22;25832;45.490;4.912;2023-02-01T08:37:18;4.50;99.90
40123;DHT22;25832;45.490;4.912;2023-02-01T08:39:44;4.60;99.90
40123;DHT22;25832;45.490;4.912;2023-02-01T08:42:10;4.70;99.90
40123;DHT22;25832;45.490;4.912;2023-02-01T08:44:54;4.80;99.90
40123;DHT22;25832;45.490;4.912;2023-02-01T08:47:20;4.80;99.90
40123;DHT22;25832;45.490;4.912;2023-02-01T08:49:46;4.80;99.90
40123;DHT22;25832;45.490;4.912;2023-02-01T08:52:11;4.90;99.90
40123;DHT22;25832;45.490;4.912;2023-02-01T08:54:37;4.90;99.90
40123;DHT22;25832;45.490;4.912;2023-02-01T08:57:05;4.90;99.90
40123;DHT22;25832;45.490;4.912;2023-02-01T08:59:31;5.00;99.90
40123;DHT22;25832;45.490;4.912;2023-02-01T09:01:56;5.10;99.90
40123;DHT22;25832;45.490;4.912;2023-02-01T09:04:22;5.10;99.90
40123;DHT22;25832;45.490;4.912;2023-02-01T09:06:48;5.20;99.90
40123;DHT22;25832;45.490;4.912;2023-02-01T09:09:13;5.20;99.90
40123;DHT22;25832;45.490;4.912;2023-02-01T09:11:39;5.20;99.90
40123;DHT22;25832;45.490;4.912;2023-02-01T09:14:05;5.20;99.90
40123;DHT22;25832;45.490;4.912;2023-02-01T09:16:31;5.20;99.90
40123;DHT22;25832;45.490;4.912;2023-02-01T09:18:57;5.10;99.90
40123;DHT22;25832;45.490;4.912;2023-02-01T09:21:23;5.20;99.90
40123;DHT22;25832;45.490;4.912;2023-02-01T09:23:50;5.30;99.90
40123;DHT22;25832;45.490;4.912;2023-02-01T09:26:16;5.40;99.90
40123;DHT22;25832;45.490;4.912;2023-02-01T09:28:42;5.50;99.90
40123;DHT22;25832;45.490;4.912;2023-02-01T09:31:07;5.50;99.90
40123;DHT22;25832;45.490;4.912;2023-02-01T09:33:33;5.60;99.90
40123;DHT22;25832;45.490;4.912;2023-02-01T09:36:00;5.60;99.90
40123;DHT22;25832;45.490;4.912;2023-02-01T09:38:26;5.60;99.90
40123;DHT22;25832;45.490;4.912;2023-02-01T09:40:53;5.60;99.90
40123;DHT22;25832;45.490;4.912;2023-02-01T09:43:46;5.60;99.90
40123;DHT22;25832;45.490;4.912;2023-02-01T09:46:24;5.60;99.90
40123;DHT22;25832;45.490;4.912;2023-02-01T09:48:54;5.60;99.90
40123;DHT22;25832;45.490;4.912;2023-02-01T09:51:42;5.60;99.90
40123;DHT22;25832;45.490;4.912;2023-02-01T09:54:19;5.50;99.90
40123;DHT22;25832;45.490;4.912;2023-02-01T09:59:40;5.40;99.90
40123;DHT22;25832;45.490;4.912;2023-02-01T10:02:19;5.40;99.90
40123;DHT22;25832;45.490;4.912;2023-02-01T10:04:47;5.50;99.90
40123;DHT22;25832;45.490;4.912;2023-02-01T10:07:34;5.50;99.90
40123;DHT22;25832;45.490;4.912;2023-02-01T10:15:57;5.70;99.90
40123;DHT22;25832;45.490;4.912;2023-02-01T10:18:51;5.80;99.90
40123;DHT22;25832;45.490;4.912;2023-02-01T10:24:33;6.00;99.90
40123;DHT22;25832;45.490;4.912;2023-02-01T10:29:37;6.00;99.90
40123;DHT22;25832;45.490;4.912;2023-02-01T10:32:21;6.10;99.90
40123;DHT22;25832;45.490;4.912;2023-02-01T10:34:59;6.10;99.90
40123;DHT22;25832;45.490;4.912;2023-02-01T10:37:33;6.10;99.90
40123;DHT22;25832;45.490;4.912;2023-02-01T10:40:18;6.10;99.90
40123;DHT22;25832;45.490;4.912;2023-02-01T10:42:45;6.00;99.90
40123;DHT22;25832;45.490;4.912;2023-02-01T10:45:19;6.10;99.90
40123;DHT22;25832;45.490;4.912;2023-02-01T10:47:47;6.00;99.90
40123;DHT22;25832;45.490;4.912;2023-02-01T10:53:03;6.00;99.90
40123;DHT22;25832;45.490;4.912;2023-02-01T10:56:07;6.10;99.90
40123;DHT22;25832;45.490;4.912;2023-02-01T10:58:28;6.20;99.90
40123;DHT22;25832;45.490;4.912;2023-02-01T11:01:06;6.20;99.90
40123;DHT22;25832;45.490;4.912;2023-02-01T11:03:44;6.20;99.90
40123;DHT22;25832;45.490;4.912;2023-02-01T11:06:15;6.30;99.90
40123;DHT22;25832;45.490;4.912;2023-02-01T11:08:45;6.40;99.90
40123;DHT22;25832;45.490;4.912;2023-02-01T11:11:10;6.40;99.90
40123;DHT22;25832;45.490;4.912;2023-02-01T11:13:38;6.40;99.90
40123;DHT22;25832;45.490;4.912;2023-02-01T11:16:05;6.50;99.90
40123;DHT22;25832;45.490;4.912;2023-02-01T11:18:36;6.50;99.90
40123;DHT22;25832;45.490;4.912;2023-02-01T11:21:03;6.60;99.90
40123;DHT22;25832;45.490;4.912;2023-02-01T11:23:31;6.60;99.90
40123;DHT22;25832;45.490;4.912;2023-02-01T11:26:15;6.70;99.90
40123;DHT22;25832;45.490;4.912;2023-02-01T11:28:56;6.90;99.90
40123;DHT22;25832;45.490;4.912;2023-02-01T11:31:24;7.10;99.90
40123;DHT22;25832;45.490;4.912;2023-02-01T11:33:53;7.30;99.90
40123;DHT22;25832;45.490;4.912;2023-02-01T11:36:26;7.50;99.90
40123;DHT22;25832;45.490;4.912;2023-02-01T11:39:17;7.50;99.90
40123;DHT22;25832;45.490;4.912;2023-02-01T11:42:04;7.60;99.90
40123;DHT22;25832;45.490;4.912;2023-02-01T11:44:37;7.80;99.90
40123;DHT22;25832;45.490;4.912;2023-02-01T11:47:27;7.90;99.90
40123;DHT22;25832;45.490;4.912;2023-02-01T11:49:58;7.90;99.90
40123;DHT22;25832;45.490;4.912;2023-02-01T11:57:51;7.90;99.90
40123;DHT22;25832;45.490;4.912;2023-02-01T12:03:43;7.80;99.90
40123;DHT22;25832;45.490;4.912;2023-02-01T12:11:51;8.10;99.90
40123;DHT22;25832;45.490;4.912;2023-02-01T12:17:20;7.90;99.90
40123;DHT22;25832;45.490;4.912;2023-02-01T12:31:20;8.10;99.90
40123;DHT22;25832;45.490;4.912;2023-02-01T12:40:02;8.20;99.90
40123;DHT22;25832;45.490;4.912;2023-02-01T12:42:41;8.30;99.90
40123;DHT22;25832;45.490;4.912;2023-02-01T12:45:31;8.30;99.90
40123;DHT22;25832;45.490;4.912;2023-02-01T12:48:38;8.40;99.90
40123;DHT22;25832;45.490;4.912;2023-02-01T12:51:26;8.40;99.90
40123;DHT22;25832;45.490;4.912;2023-02-01T12:57:01;8.20;99.90
40123;DHT22;25832;45.490;4.912;2023-02-01T12:59:36;8.10;99.90
40123;DHT22;25832;45.490;4.912;2023-02-01T13:02:32;8.10;99.90
40123;DHT22;25832;45.490;4.912;2023-02-01T13:16:06;8.00;99.90
40123;DHT22;25832;45.490;4.912;2023-02-01T13:18:39;7.90;99.90
40123;DHT22;25832;45.490;4.912;2023-02-01T13:21:31;7.90;99.90
40123;DHT22;25832;45.490;4.912;2023-02-01T13:23:58;7.90;99.90
40123;DHT22;25832;45.490;4.912;2023-02-01T13:26:23;7.90;99.90
40123;DHT22;25832;45.490;4.912;2023-02-01T13:29:24;8.00;99.90
40123;DHT22;25832;45.490;4.912;2023-02-01T13:43:23;7.90;99.90
40123;DHT22;25832;45.490;4.912;2023-02-01T13:45:56;7.90;99.90
40123;DHT22;25832;45.490;4.912;2023-02-01T13:48:38;8.00;99.90
40123;DHT22;25832;45.490;4.912;2023-02-01T13:51:05;8.00;99.90
40123;DHT22;25832;45.490;4.912;2023-02-01T13:53:34;8.00;99.90
40123;DHT22;25832;45.490;4.912;2023-02-01T13:58:37;8.10;99.90
40123;DHT22;25832;45.490;4.912;2023-02-01T14:04:02;8.10;99.90
40123;DHT22;25832;45.490;4.912;2023-02-01T14:09:33;8.10;99.90
40123;DHT22;25832;45.490;4.912;2023-02-01T14:12:49;8.10;99.90
40123;DHT22;25832;45.490;4.912;2023-02-01T14:15:24;8.00;99.90
40123;DHT22;25832;45.490;4.912;2023-02-01T14:17:50;8.00;99.90
40123;DHT22;25832;45.490;4.912;2023-02-01T14:20:40;7.90;99.90
40123;DHT22;25832;45.490;4.912;2023-02-01T14:23:15;7.90;99.90
40123;DHT22;25832;45.490;4.912;2023-02-01T14:25:42;7.90;99.90
40123;DHT22;25832;45.490;4.912;2023-02-01T14:28:24;7.90;99.90
40123;DHT22;25832;45.490;4.912;2023-02-01T14:30:50;7.90;99.90
40123;DHT22;25832;45.490;4.912;2023-02-01T14:33:24;7.90;99.90
40123;DHT22;25832;45.490;4.912;2023-02-01T14:36:12;7.90;99.90
40123;DHT22;25832;45.490;4.912;2023-02-01T14:38:39;7.90;99.90
40123;DHT22;25832;45.490;4.912;2023-02-01T14:41:23;7.80;99.90
40123;DHT22;25832;45.490;4.912;2023-02-01T14:50:12;7.80;99.90
40123;DHT22;25832;45.490;4.912;2023-02-01T14:52:40;7.70;99.90
40123;DHT22;25832;45.490;4.912;2023-02-01T14:55:37;7.80;99.90
40123;DHT22;25832;45.490;4.912;2023-02-01T14:58:02;7.70;99.90
40123;DHT22;25832;45.490;4.912;2023-02-01T15:00:30;7.60;99.90
40123;DHT22;25832;45.490;4.912;2023-02-01T15:05:57;7.60;99.90
40123;DHT22;25832;45.490;4.912;2023-02-01T15:08:29;7.60;99.90
40123;DHT22;25832;45.490;4.912;2023-02-01T15:10:57;7.60;99.90
40123;DHT22;25832;45.490;4.912;2023-02-01T15:13:26;7.60;99.90
40123;DHT22;25832;45.490;4.912;2023-02-01T15:16:13;7.60;99.90
40123;DHT22;25832;45.490;4.912;2023-02-01T15:18:39;7.50;99.90
40123;DHT22;25832;45.490;4.912;2023-02-01T15:21:12;7.50;99.90
40123;DHT22;25832;45.490;4.912;2023-02-01T15:23:40;7.50;99.90
40123;DHT22;25832;45.490;4.912;2023-02-01T15:26:05;7.50;99.90
40123;DHT22;25832;45.490;4.912;2023-02-01T15:28:31;7.50;99.90
40123;DHT22;25832;45.490;4.912;2023-02-01T15:30:58;7.40;99.90
40123;DHT22;25832;45.490;4.912;2023-02-01T15:33:25;7.40;99.90
40123;DHT22;25832;45.490;4.912;2023-02-01T15:36:08;7.40;99.90
40123;DHT22;25832;45.490;4.912;2023-02-01T15:38:35;7.40;99.90
40123;DHT22;25832;45.490;4.912;2023-02-01T15:46:35;7.30;99.90
40123;DHT22;25832;45.490;4.912;2023-02-01T15:49:02;7.30;99.90
40123;DHT22;25832;45.490;4.912;2023-02-01T15:51:31;7.30;99.90
40123;DHT22;25832;45.490;4.912;2023-02-01T15:54:04;7.30;99.90
40123;DHT22;25832;45.490;4.912;2023-02-01T15:56:39;7.30;99.90
40123;DHT22;25832;45.490;4.912;2023-02-01T15:59:15;7.30;99.90
40123;DHT22;25832;45.490;4.912;2023-02-01T16:01:41;7.30;99.90
40123;DHT22;25832;45.490;4.912;2023-02-01T16:04:27;7.30;99.90
40123;DHT22;25832;45.490;4.912;2023-02-01T16:06:58;7.30;99.90
40123;DHT22;25832;45.490;4.912;2023-02-01T16:09:37;7.20;99.90
40123;DHT22;25832;45.490;4.912;2023-02-01T16:12:31;7.20;99.90
40123;DHT22;25832;45.490;4.912;2023-02-01T16:14:57;7.20;99.90
40123;DHT22;25832;45.490;4.912;2023-02-01T16:17:23;7.20;99.90
40123;DHT22;25832;45.490;4.912;2023-02-01T16:19:48;7.10;99.90
40123;DHT22;25832;45.490;4.912;2023-02-01T16:22:14;7.10;99.90
40123;DHT22;25832;45.490;4.912;2023-02-01T16:24:39;7.10;99.90
40123;DHT22;25832;45.490;4.912;2023-02-01T16:27:05;7.00;99.90
40123;DHT22;25832;45.490;4.912;2023-02-01T16:29:32;7.00;99.90
40123;DHT22;25832;45.490;4.912;2023-02-01T16:31:59;6.90;99.90
40123;DHT22;25832;45.490;4.912;2023-02-01T16:34:25;7.00;99.90
40123;DHT22;25832;45.490;4.912;2023-02-01T16:36:51;7.00;99.90
40123;DHT22;25832;45.490;4.912;2023-02-01T16:39:18;6.90;99.90
40123;DHT22;25832;45.490;4.912;2023-02-01T16:41:44;6.80;99.90
40123;DHT22;25832;45.490;4.912;2023-02-01T16:44:13;6.80;99.90
40123;DHT22;25832;45.490;4.912;2023-02-01T16:46:41;6.80;99.90
40123;DHT22;25832;45.490;4.912;2023-02-01T16:49:21;6.80;99.90
40123;DHT22;25832;45.490;4.912;2023-02-01T16:51:48;6.70;99.90
40123;DHT22;25832;45.490;4.912;2023-02-01T16:54:15;6.70;99.90
40123;DHT22;25832;45.490;4.912;2023-02-01T16:56:42;6.70;99.90
40123;DHT22;25832;45.490;4.912;2023-02-01T16:59:09;6.60;99.90
40123;DHT22;25832;45.490;4.912;2023-02-01T17:01:35;6.70;99.90
40123;DHT22;25832;45.490;4.912;2023-02-01T17:04:03;6.70;99.90
40123;DHT22;25832;45.490;4.912;2023-02-01T17:06:29;6.60;99.90
40123;DHT22;25832;45.490;4.912;2023-02-01T17:08:58;6.60;99.90
40123;DHT22;25832;45.490;4.912;2023-02-01T17:11:24;6.60;99.90
40123;DHT22;25832;45.490;4.912;2023-02-01T17:13:50;6.60;99.90
40123;DHT22;25832;45.490;4.912;2023-02-01T17:16:26;6.60;99.90
40123;DHT22;25832;45.490;4.912;2023-02-01T17:19:03;6.60;99.90
40123;DHT22;25832;45.490;4.912;2023-02-01T17:21:38;6.60;99.90
40123;DHT22;25832;45.490;4.912;2023-02-01T17:24:05;6.60;99.90
40123;DHT22;25832;45.490;4.912;2023-02-01T17:26:30;6.50;99.90
40123;DHT22;25832;45.490;4.912;2023-02-01T17:28:56;6.50;99.90
40123;DHT22;25832;45.490;4.912;2023-02-01T17:31:22;6.50;99.90
40123;DHT22;25832;45.490;4.912;2023-02-01T17:33:48;6.60;99.90
40123;DHT22;25832;45.490;4.912;2023-02-01T17:36:15;6.60;99.90
40123;DHT22;25832;45.490;4.912;2023-02-01T17:38:42;6.50;99.90
40123;DHT22;25832;45.490;4.912;2023-02-01T17:41:12;6.50;99.90
40123;DHT22;25832;45.490;4.912;2023-02-01T17:43:38;6.60;99.90
40123;DHT22;25832;45.490;4.912;2023-02-01T17:46:13;6.60;99.90
40123;DHT22;25832;45.490;4.912;2023-02-01T17:48:40;6.60;99.90
40123;DHT22;25832;45.490;4.912;2023-02-01T17:51:16;6.60;99.90
40123;DHT22;25832;45.490;4.912;2023-02-01T17:53:42;6.50;99.90
40123;DHT22;25832;45.490;4.912;2023-02-01T17:56:13;6.50;99.90
40123;DHT22;25832;45.490;4.912;2023-02-01T17:58:39;6.50;99.90
40123;DHT22;25832;45.490;4.912;2023-02-01T18:01:04;6.50;99.90
40123;DHT22;25832;45.490;4.912;2023-02-01T18:03:31;6.50;99.90
40123;DHT22;25832;45.490;4.912;2023-02-01T18:06:00;6.50;99.90
40123;DHT22;25832;45.490;4.912;2023-02-01T18:08:28;6.40;99.90
40123;DHT22;25832;45.490;4.912;2023-02-01T18:10:59;6.40;99.90
40123;DHT22;25832;45.490;4.912;2023-02-01T18:13:29;6.40;99.90
40123;DHT22;25832;45.490;4.912;2023-02-01T18:15:55;6.40;99.90